Time;durP1;ratioP1;P1;durP2;ratioP2;P2;SDS_P1;SDS_P2;PMS_P1;PMS_P2;Temp;Humidity;BMP_temperature;BMP_pressure;BME280_temperature;BME280_humidity;BME280_pressure;Samples;Min_cycle;Max_cycle;Signal;HPM_P1;HPM_P2
2022/10/17 00:02:43;;;;;;;10.95;9.10;;;;;;;12.15;76.42;101681.11;1737605;80;20947;-77
2022/10/17 00:05:28;;;;;;;11.63;9.93;;;;;;;12.19;76.49;101686.71;1755634;80;20935;-78
2022/10/17 00:08:16;;;;;;;11.53;10.28;;;;;;;12.21;76.47;101684.97;1751022;80;20904;-78
2022/10/17 00:11:05;;;;;;;11.10;10.00;;;;;;;12.24;76.51;101684.52;1770414;80;20935;-78
2022/10/17 00:13:53;;;;;;;11.12;9.58;;;;;;;12.27;76.50;101679.75;1742118;80;20970;-78
2022/10/17 00:16:38;;;;;;;13.03;9.53;;;;;;;12.28;76.51;101689.25;1743588;80;20885;-78
2022/10/17 00:19:23;;;;;;;12.75;9.88;;;;;;;12.30;76.56;101695.30;1757628;80;20952;-78
2022/10/17 00:22:08;;;;;;;11.38;10.05;;;;;;;12.31;76.57;101691.83;1755684;79;21393;-77
2022/10/17 00:24:53;;;;;;;18.95;9.78;;;;;;;12.33;76.54;101699.17;1763149;80;21237;-77
2022/10/17 00:27:40;;;;;;;13.50;10.13;;;;;;;12.33;76.60;101704.36;1768357;80;21559;-77
2022/10/17 00:30:24;;;;;;;11.48;10.30;;;;;;;12.37;76.64;101705.20;1746811;80;21093;-77
2022/10/17 00:33:10;;;;;;;15.23;9.85;;;;;;;12.38;76.64;101696.55;1753608;80;21035;-77
2022/10/17 00:36:12;;;;;;;10.72;9.58;;;;;;;12.40;76.67;101690.48;1753311;80;21082;-77
2022/10/17 00:38:59;;;;;;;16.95;9.35;;;;;;;12.39;76.64;101687.89;1774772;78;21027;-77
2022/10/17 00:41:43;;;;;;;15.10;9.63;;;;;;;12.42;76.74;101688.73;1759320;80;21102;-77
2022/10/17 00:44:34;;;;;;;10.68;9.65;;;;;;;12.45;76.73;101687.86;1759547;80;21056;-78
2022/10/17 00:47:22;;;;;;;13.53;9.45;;;;;;;12.45;76.70;101686.12;1764221;80;21036;-77
2022/10/17 00:50:08;;;;;;;15.83;10.00;;;;;;;12.45;76.79;101687.86;1761636;80;21306;-77
2022/10/17 00:52:55;;;;;;;10.05;9.00;;;;;;;12.48;76.84;101691.70;1776528;79;22229;-77
2022/10/17 00:55:52;;;;;;;9.60;8.65;;;;;;;12.50;76.84;101694.70;1751428;80;20967;-77
2022/10/17 00:58:37;;;;;;;12.68;8.60;;;;;;;12.53;76.83;101695.13;1733447;80;21396;-77
2022/10/17 01:01:22;;;;;;;11.30;7.62;;;;;;;12.54;76.88;101705.48;1757514;80;21102;-77
2022/10/17 01:04:07;;;;;;;11.90;7.62;;;;;;;12.56;76.89;101711.97;1746011;80;21044;-77
2022/10/17 01:06:52;;;;;;;13.72;8.20;;;;;;;12.57;76.89;101710.66;1757998;78;20952;-77
2022/10/17 01:09:39;;;;;;;13.55;8.13;;;;;;;12.60;76.96;101713.67;1759374;80;21015;-77
2022/10/17 01:12:44;;;;;;;10.65;8.83;;;;;;;12.61;76.99;101720.58;1752884;80;24544;-77
2022/10/17 01:15:56;;;;;;;16.77;7.60;;;;;;;12.64;77.00;101719.70;1768550;78;20928;-77
2022/10/17 01:19:32;;;;;;;10.08;8.03;;;;;;;12.66;77.02;101724.45;1762897;80;21527;-77
2022/10/17 01:23:04;;;;;;;10.13;8.80;;;;;;;12.67;77.07;101717.95;1761938;80;21476;-77
2022/10/17 01:25:54;;;;;;;8.43;7.58;;;;;;;12.70;77.11;101716.62;1738862;80;21000;-77
2022/10/17 01:28:53;;;;;;;11.95;8.78;;;;;;;12.74;77.09;101710.98;1762551;80;21512;-77
2022/10/17 01:32:01;;;;;;;12.65;8.75;;;;;;;12.73;77.08;101708.82;1761785;80;20894;-77
2022/10/17 01:35:07;;;;;;;11.43;8.90;;;;;;;12.72;77.13;101708.83;1744322;80;20951;-77
2022/10/17 01:38:16;;;;;;;10.20;9.20;;;;;;;12.72;77.16;101701.05;1760896;80;21428;-77
2022/10/17 01:41:05;;;;;;;11.20;9.20;;;;;;;12.73;77.20;101700.17;1757287;80;21386;-77
2022/10/17 01:44:04;;;;;;;13.20;9.20;;;;;;;12.72;77.21;101699.75;1750075;80;20936;-77
2022/10/17 01:47:05;;;;;;;11.25;8.15;;;;;;;12.73;77.24;101713.16;1745119;80;20920;-77
2022/10/17 01:49:53;;;;;;;13.00;8.60;;;;;;;12.72;77.26;101715.32;1741199;80;20940;-77
2022/10/17 01:52:55;;;;;;;8.40;7.70;;;;;;;12.72;77.30;101716.19;1743798;80;20916;-77
2022/10/17 01:55:43;;;;;;;9.85;7.75;;;;;;;12.73;77.34;101715.74;1764178;80;20930;-77
2022/10/17 01:58:39;;;;;;;13.83;8.43;;;;;;;12.73;77.33;101704.92;1773111;80;20928;-77
2022/10/17 02:01:27;;;;;;;9.23;7.97;;;;;;;12.72;77.39;101703.20;1769560;78;28056;-77
2022/10/17 02:04:12;;;;;;;9.80;8.15;;;;;;;12.75;77.42;101713.56;1764993;80;21059;-77
2022/10/17 02:06:57;;;;;;;12.43;8.43;;;;;;;12.78;77.43;101707.49;1747679;80;21499;-77
2022/10/17 02:09:42;;;;;;;11.55;9.13;;;;;;;12.77;77.41;101698.84;1725099;80;21369;-77
2022/10/17 02:12:45;;;;;;;10.00;9.00;;;;;;;12.76;77.44;101693.23;1762361;80;21044;-77
2022/10/17 02:15:47;;;;;;;9.58;8.28;;;;;;;12.76;77.48;101704.91;1745226;80;21135;-77
2022/10/17 02:19:00;;;;;;;12.53;8.85;;;;;;;12.78;77.48;101704.89;1761094;80;21083;-77
2022/10/17 02:22:26;;;;;;;11.73;8.33;;;;;;;12.76;77.55;101707.94;1757317;80;21054;-77
2022/10/17 02:25:37;;;;;;;9.18;8.13;;;;;;;12.76;77.55;101716.59;1755243;80;20999;-77
2022/10/17 02:28:40;;;;;;;12.30;8.85;;;;;;;12.74;77.55;101723.95;1742080;80;20991;-76
2022/10/17 02:31:48;;;;;;;15.55;9.25;;;;;;;12.76;77.64;101724.38;1759921;80;21468;-77
2022/10/17 02:34:41;;;;;;;10.00;9.00;;;;;;;12.80;77.67;101730.41;1754140;80;21019;-77
2022/10/17 02:37:29;;;;;;;10.03;9.03;;;;;;;12.81;77.68;101732.98;1751057;80;21106;-77
2022/10/17 02:40:18;;;;;;;10.50;9.10;;;;;;;12.83;77.69;101728.64;1747433;80;21471;-77
2022/10/17 02:43:04;;;;;;;14.63;8.83;;;;;;;12.84;77.67;101726.91;1765121;80;21495;-77
2022/10/17 02:45:51;;;;;;;15.58;9.75;;;;;;;12.84;77.69;101726.91;1759222;80;21055;-77
2022/10/17 02:48:46;;;;;;;10.28;8.23;;;;;;;12.82;77.71;101735.15;1758122;80;21641;-77
2022/10/17 02:51:49;;;;;;;10.50;8.83;;;;;;;12.81;77.73;101713.95;1717366;81;21111;-77
2022/10/17 02:54:51;;;;;;;12.70;9.88;;;;;;;12.72;77.62;101689.37;1695864;82;21084;-77
2022/10/17 02:57:43;;;;;;;10.18;9.08;;;;;;;12.66;77.87;101703.69;1713527;82;21025;-77
2022/10/17 03:00:29;;;;;;;11.53;9.25;;;;;;;12.65;77.89;101713.20;1721528;82;21030;-77
2022/10/17 03:03:25;;;;;;;13.48;9.90;;;;;;;12.66;77.93;101724.45;1717555;82;21018;-77
2022/10/17 03:06:10;;;;;;;10.18;9.10;;;;;;;12.67;77.96;101730.92;1710673;82;21112;-77
2022/10/17 03:08:55;;;;;;;18.65;9.78;;;;;;;12.68;77.97;101735.67;1720123;81;21516;-77
2022/10/17 03:11:40;;;;;;;14.23;9.23;;;;;;;12.69;78.00;101738.70;1729648;81;21614;-77
2022/10/17 03:14:25;;;;;;;14.15;8.58;;;;;;;12.70;77.97;101728.74;1682328;82;21104;-77
2022/10/17 03:17:10;;;;;;;16.57;9.85;;;;;;;12.65;77.98;101727.91;1705367;82;21120;-77
2022/10/17 03:19:55;;;;;;;12.78;9.68;;;;;;;12.67;78.06;101730.06;1691576;82;21068;-77
2022/10/17 03:22:40;;;;;;;14.73;8.98;;;;;;;12.68;78.03;101736.97;1704273;82;21061;-77
2022/10/17 03:25:25;;;;;;;16.77;9.48;;;;;;;12.68;78.06;101736.97;1778347;79;22171;-77
2022/10/17 03:28:11;;;;;;;16.27;9.40;;;;;;;12.67;78.05;101741.30;1777723;78;21055;-77
2022/10/17 03:30:56;;;;;;;12.40;9.83;;;;;;;12.63;78.08;101740.89;1761257;79;21097;-77
2022/10/17 03:33:42;;;;;;;18.23;9.50;;;;;;;12.63;78.13;101734.84;1766379;79;21042;-77
2022/10/17 03:36:26;;;;;;;15.65;9.48;;;;;;;12.60;78.14;101739.18;1767323;79;20942;-77
2022/10/17 03:39:11;;;;;;;14.47;9.45;;;;;;;12.61;78.14;101741.34;1784057;78;20911;-77
2022/10/17 03:41:56;;;;;;;13.48;9.43;;;;;;;12.58;78.12;101729.25;1768322;79;20923;-77
2022/10/17 03:44:41;;;;;;;18.48;9.55;;;;;;;12.57;78.13;101719.73;1767493;79;21052;-77
2022/10/17 03:47:28;;;;;;;10.23;8.43;;;;;;;12.55;78.14;101725.37;1765762;78;21519;-77
2022/10/17 03:50:12;;;;;;;11.95;8.45;;;;;;;12.54;78.19;101721.49;1772447;79;20920;-77
2022/10/17 03:52:57;;;;;;;12.03;8.38;;;;;;;12.53;78.21;101724.95;1782996;78;21025;-77
2022/10/17 03:55:43;;;;;;;11.10;8.10;;;;;;;12.53;78.22;101732.74;1776925;79;21101;-77
2022/10/17 03:58:28;;;;;;;8.73;7.50;;;;;;;12.51;78.21;101740.97;1779285;79;21085;-77
2022/10/17 04:01:15;;;;;;;9.30;8.10;;;;;;;12.49;78.23;101753.09;1780644;78;21046;-77
2022/10/17 04:04:00;;;;;;;13.32;8.58;;;;;;;12.48;78.29;101764.33;1761465;79;21094;-77
2022/10/17 04:06:46;;;;;;;12.80;9.05;;;;;;;12.50;78.33;101771.67;1760267;79;21070;-77
2022/10/17 04:09:30;;;;;;;9.50;8.18;;;;;;;12.51;78.34;101770.37;1768557;79;21034;-77
2022/10/17 04:12:16;;;;;;;12.13;8.28;;;;;;;12.54;78.36;101769.48;1770294;79;21035;-81
2022/10/17 04:15:01;;;;;;;8.75;7.65;;;;;;;12.52;78.31;101763.02;1764923;78;21149;-77
2022/10/17 04:17:46;;;;;;;16.17;7.60;;;;;;;12.51;78.34;101763.88;1771330;78;21102;-81
2022/10/17 04:20:31;;;;;;;17.15;7.97;;;;;;;12.50;78.37;101760.86;1767103;79;21066;-81
2022/10/17 04:23:16;;;;;;;16.35;12.03;;;;;;;12.49;78.38;101760.87;1744212;79;21043;-80
2022/10/17 04:26:02;;;;;;;14.98;9.88;;;;;;;12.49;78.43;101756.98;1752570;80;21102;-80
2022/10/17 04:28:47;;;;;;;13.35;10.15;;;;;;;12.49;78.45;101755.68;1753939;79;21007;-80
2022/10/17 04:31:32;;;;;;;11.57;9.08;;;;;;;12.49;78.46;101753.09;1752897;80;20968;-80
2022/10/17 04:34:18;;;;;;;9.43;7.28;;;;;;;12.48;78.47;101754.81;1753565;78;21126;-80
2022/10/17 04:37:03;;;;;;;9.28;7.95;;;;;;;12.45;78.42;101760.48;1754507;80;21614;-80
2022/10/17 04:39:48;;;;;;;10.38;8.40;;;;;;;12.43;78.45;101760.50;1767980;80;21473;-80
2022/10/17 04:42:33;;;;;;;11.63;8.50;;;;;;;12.39;78.42;101764.41;1756075;80;21519;-81
2022/10/17 04:45:18;;;;;;;10.60;8.13;;;;;;;12.37;78.48;101764.86;1755723;79;21036;-81
2022/10/17 04:48:04;;;;;;;8.80;7.85;;;;;;;12.33;78.44;101765.73;1746704;80;21634;-81
2022/10/17 04:50:59;;;;;;;8.90;7.78;;;;;;;12.29;78.49;101762.30;1765883;80;21082;-80
2022/10/17 04:53:45;;;;;;;13.60;8.00;;;;;;;12.26;78.53;101756.69;1750398;78;22284;-80
2022/10/17 04:56:30;;;;;;;10.33;8.47;;;;;;;12.24;78.53;101756.27;1750230;80;21055;-80
2022/10/17 04:59:15;;;;;;;9.45;8.55;;;;;;;12.20;78.54;101755.42;1763928;80;21051;-80
2022/10/17 05:02:00;;;;;;;8.98;8.08;;;;;;;12.19;78.54;101768.39;1750259;80;21485;-80
2022/10/17 05:04:46;;;;;;;12.10;8.55;;;;;;;12.14;78.55;101768.41;1759253;80;21114;-80
2022/10/17 05:07:31;;;;;;;11.48;8.55;;;;;;;12.12;78.57;101770.14;1762613;79;20999;-80
2022/10/17 05:10:16;;;;;;;13.55;8.70;;;;;;;12.10;78.59;101764.53;1761529;79;20971;-80
2022/10/17 05:13:01;;;;;;;8.93;8.13;;;;;;;12.09;78.58;101768.00;1765885;80;21106;-80
2022/10/17 05:15:46;;;;;;;11.25;8.83;;;;;;;12.07;78.56;101769.73;1753215;79;21007;-80
2022/10/17 05:18:31;;;;;;;15.60;9.03;;;;;;;12.05;78.60;101763.69;1756525;80;21844;-80
2022/10/17 05:21:17;;;;;;;8.55;7.83;;;;;;;12.02;78.62;101764.56;1755105;79;21043;-80
2022/10/17 05:24:06;;;;;;;12.78;7.47;;;;;;;12.00;78.59;101764.14;1744598;80;21024;-80
2022/10/17 05:26:51;;;;;;;8.90;7.17;;;;;;;11.98;78.59;101765.44;1760739;80;21724;-80
2022/10/17 05:29:36;;;;;;;13.22;7.50;;;;;;;11.96;78.55;101768.47;1758833;80;21040;-80
2022/10/17 05:32:21;;;;;;;9.33;8.08;;;;;;;11.94;78.62;101772.83;1751512;80;21090;-81
2022/10/17 05:35:07;;;;;;;9.53;8.28;;;;;;;11.93;78.60;101774.99;1757557;80;21063;-81
2022/10/17 05:37:51;;;;;;;10.65;8.25;;;;;;;11.92;78.63;101771.97;1750487;80;21074;-81
2022/10/17 05:40:38;;;;;;;13.05;8.53;;;;;;;11.93;78.64;101779.74;1762190;79;21511;-81
2022/10/17 05:43:23;;;;;;;10.88;8.83;;;;;;;11.93;78.64;101777.16;1760231;80;22214;-81
2022/10/17 05:46:09;;;;;;;13.93;8.30;;;;;;;11.93;78.64;101777.16;1749431;80;21081;-81
2022/10/17 05:48:54;;;;;;;9.70;7.08;;;;;;;11.95;78.68;101782.77;1754742;80;21052;-81
2022/10/17 05:51:40;;;;;;;8.38;6.78;;;;;;;11.98;78.68;101790.06;1749261;80;21554;-81
2022/10/17 05:54:25;;;;;;;10.13;7.70;;;;;;;11.99;78.68;101787.04;1749801;80;21039;-81
2022/10/17 05:57:10;;;;;;;9.90;7.15;;;;;;;12.00;78.69;101788.33;1758212;80;21055;-81
2022/10/17 05:59:55;;;;;;;8.35;6.95;;;;;;;12.03;78.66;101796.53;1763165;80;21015;-81
2022/10/17 06:02:41;;;;;;;12.73;6.62;;;;;;;12.07;78.69;101796.95;1754800;80;21567;-81
2022/10/17 06:05:26;;;;;;;7.62;6.60;;;;;;;12.10;78.74;101797.80;1757644;80;21082;-81
2022/10/17 06:08:11;;;;;;;8.33;7.22;;;;;;;12.16;78.73;101796.49;1747316;80;21086;-81
2022/10/17 06:10:56;;;;;;;11.70;8.88;;;;;;;12.21;78.79;101794.75;1751170;80;21098;-81
2022/10/17 06:13:42;;;;;;;9.53;7.62;;;;;;;12.26;78.79;101795.59;1756465;78;21128;-80
2022/10/17 06:16:27;;;;;;;8.83;8.03;;;;;;;12.34;78.83;101800.75;1748051;80;21645;-80
2022/10/17 06:19:12;;;;;;;14.43;8.20;;;;;;;12.41;78.83;101805.47;1732591;80;20998;-80
2022/10/17 06:21:57;;;;;;;8.75;7.67;;;;;;;12.46;78.81;101806.31;1755892;80;21094;-80
2022/10/17 06:24:42;;;;;;;8.73;7.92;;;;;;;12.54;78.81;101809.70;1767466;79;21065;-80
2022/10/17 06:27:27;;;;;;;8.20;7.40;;;;;;;12.62;78.86;101806.64;1771220;79;21247;-80
2022/10/17 06:30:12;;;;;;;11.68;10.50;;;;;;;12.72;78.91;101808.31;1753967;79;21010;-80
2022/10/17 06:32:58;;;;;;;13.35;11.88;;;;;;;12.82;78.90;101809.13;1776026;78;20954;-80
2022/10/17 06:35:43;;;;;;;17.02;11.88;;;;;;;12.92;79.03;101806.46;1771881;79;21066;-80
2022/10/17 06:38:28;;;;;;;13.38;10.95;;;;;;;13.14;79.13;101802.39;1771805;79;21459;-80
2022/10/17 06:41:18;;;;;;;12.35;10.90;;;;;;;13.41;79.13;101799.60;1771407;79;21014;-80
2022/10/17 06:44:08;;;;;;;14.07;11.68;;;;;;;13.63;79.07;101805.88;1762549;78;21027;-80
2022/10/17 06:46:49;;;;;;;;;;;;;;;13.77;79.00;101804.00;1780865;79;21629;-80
2022/10/17 06:49:33;;;;;;;18.02;11.08;;;;;;;13.90;79.08;101805.17;1773811;79;20189;-80
2022/10/17 06:52:19;;;;;;;15.83;11.95;;;;;;;14.00;79.02;101811.12;1764740;78;22076;-80
2022/10/17 06:55:05;;;;;;;20.17;15.38;;;;;;;14.11;79.07;101809.24;1757470;79;21039;-80
2022/10/17 06:57:51;;;;;;;14.63;12.28;;;;;;;14.21;79.08;101817.36;1754935;79;21451;-80
2022/10/17 07:00:36;;;;;;;16.62;13.48;;;;;;;14.34;79.16;101814.17;1760111;79;21098;-80
2022/10/17 07:03:21;;;;;;;15.38;13.62;;;;;;;14.46;79.17;101817.95;1748346;79;21018;-81
2022/10/17 07:06:06;;;;;;;18.57;16.65;;;;;;;14.60;79.25;101819.49;1755891;79;21002;-81
2022/10/17 07:08:51;;;;;;;22.20;15.80;;;;;;;14.74;79.23;101822.77;1751090;79;21032;-81
2022/10/17 07:11:36;;;;;;;20.05;16.52;;;;;;;14.85;79.26;101826.09;1757866;79;21050;-81
2022/10/17 07:14:21;;;;;;;20.00;17.17;;;;;;;14.95;79.26;101821.61;1747549;79;21101;-81
2022/10/17 07:17:06;;;;;;;22.52;18.45;;;;;;;15.09;79.34;101822.23;1772491;79;22265;-81
2022/10/17 07:19:51;;;;;;;20.20;18.17;;;;;;;15.30;79.38;101823.64;1774258;79;21483;-81
2022/10/17 07:22:37;;;;;;;22.17;19.12;;;;;;;15.49;79.46;101826.37;1778777;79;21058;-81
2022/10/17 07:25:22;;;;;;;22.10;19.65;;;;;;;15.72;79.56;101824.23;1766929;79;21130;-80
2022/10/17 07:28:07;;;;;;;23.42;19.62;;;;;;;16.05;79.59;101823.19;1737104;80;21055;-80
2022/10/17 07:30:52;;;;;;;20.77;18.67;;;;;;;16.33;79.59;101816.95;1750331;80;20987;-80
2022/10/17 07:33:37;;;;;;;23.87;21.12;;;;;;;16.61;79.63;101820.70;1752109;80;21039;-80
2022/10/17 07:36:23;;;;;;;22.13;19.77;;;;;;;16.90;79.65;101822.67;1750287;80;21717;-81
2022/10/17 07:39:08;;;;;;;25.90;21.35;;;;;;;17.10;79.62;101822.22;1766914;80;21047;-81
2022/10/17 07:41:53;;;;;;;23.32;20.30;;;;;;;17.27;79.65;101814.80;1763532;77;21499;-81
2022/10/17 07:44:38;;;;;;;23.50;21.02;;;;;;;17.52;79.67;101821.58;1743206;80;21111;-81
2022/10/17 07:47:23;;;;;;;26.93;22.00;;;;;;;17.78;79.74;101824.38;1772735;80;21507;-81
2022/10/17 07:50:09;;;;;;;24.32;19.80;;;;;;;18.10;79.73;101820.90;1757008;80;20987;-81
2022/10/17 07:52:54;;;;;;;25.95;21.30;;;;;;;18.38;79.67;101817.02;1740519;80;21526;-81
2022/10/17 07:55:41;;;;;;;22.27;19.98;;;;;;;18.63;79.63;101818.95;1701883;82;21516;-81
2022/10/17 07:58:27;;;;;;;;;;;;;;;18.87;79.50;101819.47;1670409;84;21640;-81
2022/10/17 08:01:13;;;;;;;22.35;19.65;;;;;;;19.05;79.07;101811.03;1700609;82;20212;-81
2022/10/17 08:03:58;;;;;;;22.27;19.95;;;;;;;19.17;79.36;101816.34;1709884;82;22175;-81
2022/10/17 08:06:43;;;;;;;22.10;18.67;;;;;;;19.21;79.36;101811.85;1700007;82;21501;-81
2022/10/17 08:09:28;;;;;;;19.90;17.82;;;;;;;19.25;79.43;101814.75;1693886;83;21052;-81
2022/10/17 08:12:14;;;;;;;24.15;20.62;;;;;;;19.29;79.39;101813.28;1708045;82;21592;-81
2022/10/17 08:15:01;;;;;;;22.27;19.70;;;;;;;19.27;79.32;101813.78;1682654;83;21468;-81
2022/10/17 08:17:46;;;;;;;22.45;19.90;;;;;;;19.20;79.35;101814.07;1702156;82;21056;-81
2022/10/17 08:20:31;;;;;;;23.77;20.02;;;;;;;19.14;79.38;101809.88;1668540;84;21393;-81
2022/10/17 08:23:17;;;;;;;20.60;18.45;;;;;;;19.07;79.33;101802.67;1679067;84;21588;-81
2022/10/17 08:26:05;;;;;;;20.85;18.57;;;;;;;19.04;79.29;101808.46;1693849;83;21020;-81
2022/10/17 08:28:49;;;;;;;22.73;18.77;;;;;;;19.00;79.23;101806.39;1748642;80;21078;-81
2022/10/17 08:31:34;;;;;;;21.00;17.55;;;;;;;18.99;79.22;101807.75;1750208;80;21073;-81
2022/10/17 08:34:19;;;;;;;24.12;19.62;;;;;;;18.95;79.12;101799.58;1751044;77;20974;-80
2022/10/17 08:37:05;;;;;;;21.33;17.95;;;;;;;18.94;79.05;101807.03;1743434;80;21482;-80
2022/10/17 08:39:49;;;;;;;25.20;17.42;;;;;;;18.86;78.95;101802.03;1744934;80;21479;-80
2022/10/17 08:42:43;;;;;;;22.42;18.52;;;;;;;18.80;78.89;101805.70;1758208;80;21078;-80
2022/10/17 08:45:32;;;;;;;24.18;19.27;;;;;;;18.74;78.87;101805.03;1754668;80;21299;-80
2022/10/17 08:48:22;;;;;;;28.38;18.92;;;;;;;18.68;78.84;101803.95;1762548;80;21531;-80
2022/10/17 08:51:24;;;;;;;20.43;18.25;;;;;;;18.65;78.78;101805.34;1747769;80;21532;-80
2022/10/17 08:54:18;;;;;;;21.23;18.98;;;;;;;18.62;78.76;101810.23;1765605;80;21082;-80
2022/10/17 08:57:03;;;;;;;21.00;18.62;;;;;;;18.63;78.74;101808.02;1754762;80;21431;-81
2022/10/17 08:59:51;;;;;;;22.67;18.20;;;;;;;18.63;78.68;101804.53;1761601;80;21058;-81
2022/10/17 09:02:45;;;;;;;26.68;17.35;;;;;;;18.64;78.62;101808.42;1749941;80;21570;-81
2022/10/17 09:05:57;;;;;;;21.07;17.65;;;;;;;18.67;78.60;101810.09;1750735;80;21095;-81
2022/10/17 09:08:56;;;;;;;19.17;17.05;;;;;;;18.69;78.55;101805.66;1753609;80;21035;-81
2022/10/17 09:12:20;;;;;;;19.50;16.65;;;;;;;18.72;78.45;101808.16;1731470;80;21478;-81
2022/10/17 09:15:42;;;;;;;20.70;18.50;;;;;;;18.76;78.46;101813.25;1758899;80;21060;-81
2022/10/17 09:18:34;;;;;;;20.23;16.73;;;;;;;18.84;78.41;101815.64;1768534;78;21043;-81
2022/10/17 09:21:28;;;;;;;21.85;16.95;;;;;;;18.87;78.34;101810.75;1753440;77;21062;-81
2022/10/17 09:24:24;;;;;;;22.60;17.02;;;;;;;18.92;78.35;101812.33;1753899;80;21539;-81
2022/10/17 09:27:23;;;;;;;17.95;15.58;;;;;;;18.96;78.28;101813.95;1762761;80;21035;-80
2022/10/17 09:30:34;;;;;;;22.30;17.48;;;;;;;18.99;78.22;101817.78;1744844;80;21106;-80
2022/10/17 09:33:31;;;;;;;20.43;18.30;;;;;;;19.05;78.22;101811.03;1753848;80;21587;-80
2022/10/17 09:36:24;;;;;;;25.97;18.10;;;;;;;19.06;78.11;101807.50;1754916;80;21018;-80
2022/10/17 09:39:19;;;;;;;25.57;18.42;;;;;;;19.10;78.08;101809.58;1754837;80;21034;-81
2022/10/17 09:42:04;;;;;;;19.98;17.32;;;;;;;19.11;78.05;101805.59;1745052;80;20998;-81
2022/10/17 09:45:25;;;;;;;19.98;16.80;;;;;;;19.16;78.03;101803.68;1764134;80;21031;-81
2022/10/17 09:48:25;;;;;;;23.10;17.90;;;;;;;19.20;78.04;101801.81;1742791;80;21066;-81
2022/10/17 09:51:11;;;;;;;22.52;18.17;;;;;;;19.27;77.91;101800.67;1705265;82;21019;-81
2022/10/17 09:54:20;;;;;;;;;;;;;;;19.31;77.89;101798.35;1746860;80;20990;-81
2022/10/17 09:57:09;;;;;;;23.15;16.95;;;;;;;19.35;77.72;101800.42;1751523;80;20145;-81
2022/10/17 10:00:04;;;;;;;19.77;16.93;;;;;;;19.39;77.79;101798.95;1745953;80;21886;-81
2022/10/17 10:02:49;;;;;;;16.02;14.53;;;;;;;19.43;77.76;101801.02;1747230;80;21845;-81
2022/10/17 10:05:34;;;;;;;15.95;14.28;;;;;;;19.47;77.71;101800.87;1750744;80;21090;-81
2022/10/17 10:08:21;;;;;;;19.02;14.25;;;;;;;19.51;77.65;101802.97;1750880;80;21472;-81
2022/10/17 10:11:08;;;;;;;20.43;15.40;;;;;;;19.57;77.70;101801.90;1753177;78;21713;-81
2022/10/17 10:13:53;;;;;;;18.65;14.80;;;;;;;19.66;77.69;101800.27;1750764;78;20982;-81
2022/10/17 10:16:45;;;;;;;17.52;13.00;;;;;;;19.72;77.56;101799.60;1750743;80;21039;-81
2022/10/17 10:19:36;;;;;;;18.80;12.78;;;;;;;19.78;77.46;101794.11;1753282;80;21070;-81
2022/10/17 10:22:22;;;;;;;16.65;10.60;;;;;;;19.81;77.43;101797.94;1737523;80;21072;-81
2022/10/17 10:25:13;;;;;;;14.03;11.53;;;;;;;19.86;77.34;101799.54;1753814;79;21023;-81
2022/10/17 10:27:58;;;;;;;13.15;11.05;;;;;;;19.86;77.25;101794.29;1761132;80;21105;-80
2022/10/17 10:30:47;;;;;;;12.05;10.82;;;;;;;19.88;77.24;101790.70;1745662;80;21094;-81
2022/10/17 10:33:38;;;;;;;12.63;10.78;;;;;;;19.90;77.19;101789.33;1760714;79;21090;-81
2022/10/17 10:36:23;;;;;;;13.45;11.57;;;;;;;19.93;77.14;101781.34;1754325;80;21676;-81
2022/10/17 10:39:13;;;;;;;14.63;11.88;;;;;;;19.98;77.15;101775.47;1756317;80;21031;-81
2022/10/17 10:42:01;;;;;;;14.03;11.60;;;;;;;19.99;77.03;101772.79;1760938;80;20967;-81
2022/10/17 10:44:47;;;;;;;14.15;11.50;;;;;;;20.04;76.99;101765.60;1756417;80;21118;-81
2022/10/17 10:47:32;;;;;;;12.10;10.75;;;;;;;20.06;76.88;101769.03;1760066;79;21044;-81
2022/10/17 10:50:34;;;;;;;13.65;11.15;;;;;;;20.05;76.85;101769.94;1757869;80;21040;-81
2022/10/17 10:54:05;;;;;;;11.83;10.65;;;;;;;20.08;76.85;101768.52;1757032;80;21070;-81
2022/10/17 10:56:54;;;;;;;13.28;11.80;;;;;;;20.13;76.79;101764.41;1761557;80;21748;-81
2022/10/17 10:59:59;;;;;;;13.32;12.03;;;;;;;20.18;76.71;101769.48;1756933;80;21495;-81
2022/10/17 11:03:21;;;;;;;17.27;11.30;;;;;;;20.21;76.67;101768.06;1761646;80;21069;-81
2022/10/17 11:06:14;;;;;;;14.70;12.37;;;;;;;20.24;76.58;101764.86;1756252;80;21099;-81
2022/10/17 11:11:42;;;;;;;13.30;12.00;;;;;;;20.37;76.43;101756.88;1801091;77;22038;-81
2022/10/17 11:14:50;;;;;;;13.78;12.40;;;;;;;20.37;76.33;101766.53;1736125;81;21052;-81
2022/10/17 11:17:43;;;;;;;12.88;10.80;;;;;;;20.42;76.26;101759.36;1761950;79;21310;-81
2022/10/17 11:20:57;;;;;;;14.43;10.38;;;;;;;20.44;76.18;101762.33;1760401;79;21001;-81
2022/10/17 11:23:52;;;;;;;11.83;10.00;;;;;;;20.48;76.08;101759.13;1762974;79;21557;-81
2022/10/17 11:26:51;;;;;;;12.50;9.60;;;;;;;20.52;76.02;101763.81;1742578;79;20968;-81
2022/10/17 11:29:40;;;;;;;11.28;9.08;;;;;;;20.57;75.91;101760.09;1778891;78;21054;-81
2022/10/17 11:32:31;;;;;;;10.90;9.83;;;;;;;20.62;75.87;101754.65;1779971;78;21573;-81
2022/10/17 11:35:33;;;;;;;11.97;8.65;;;;;;;20.69;75.81;101752.17;1780495;78;21014;-81
2022/10/17 11:38:30;;;;;;;11.20;8.93;;;;;;;20.76;75.70;101747.08;1777397;78;20984;-81
2022/10/17 11:41:29;;;;;;;10.32;8.78;;;;;;;20.81;75.55;101746.39;1777662;78;21022;-81
2022/10/17 11:44:37;;;;;;;9.95;8.90;;;;;;;20.82;75.48;101743.70;1771233;78;21016;-81
2022/10/17 11:47:46;;;;;;;12.65;8.95;;;;;;;20.87;75.30;101743.98;1779843;78;21062;-81
2022/10/17 11:50:38;;;;;;;9.30;7.83;;;;;;;20.90;75.24;101735.51;1785940;78;20957;-81
2022/10/17 11:53:28;;;;;;;9.83;8.48;;;;;;;20.94;75.16;101731.83;1780367;78;21001;-81
2022/10/17 11:56:18;;;;;;;8.78;7.72;;;;;;;21.02;75.08;101730.20;1788904;78;20993;-81
2022/10/17 11:59:39;;;;;;;7.95;7.08;;;;;;;21.09;75.03;101740.41;1797715;78;21410;-81
2022/10/17 12:02:32;;;;;;;7.92;6.97;;;;;;;21.16;74.84;101734.42;1776947;78;21026;-81
2022/10/17 12:05:45;;;;;;;11.43;7.92;;;;;;;21.23;74.68;101719.27;1777412;78;21423;-81
2022/10/17 12:08:38;;;;;;;7.97;7.17;;;;;;;21.29;74.56;101711.12;1765273;78;21009;-81
2022/10/17 12:11:52;;;;;;;7.17;6.58;;;;;;;21.34;74.40;101719.63;1799311;77;21076;-81
2022/10/17 12:14:45;;;;;;;8.88;7.15;;;;;;;21.37;74.29;101711.61;1790608;77;21009;-81
2022/10/17 12:17:40;;;;;;;7.72;6.95;;;;;;;21.41;74.13;101706.14;1797351;77;21484;-81
2022/10/17 12:20:27;;;;;;;7.58;6.65;;;;;;;21.41;73.98;101703.98;1798844;77;21057;-81
2022/10/17 12:23:18;;;;;;;7.05;6.40;;;;;;;21.43;73.84;101710.03;1799131;78;20949;-81
2022/10/17 12:26:08;;;;;;;7.40;6.80;;;;;;;21.45;73.72;101706.87;1733722;81;21048;-80
2022/10/17 12:28:53;;;;;;;11.75;6.65;;;;;;;21.48;73.67;101711.53;1742968;80;21103;-81
2022/10/17 12:31:38;;;;;;;11.43;7.28;;;;;;;21.53;73.49;101715.28;1737466;80;21083;-81
2022/10/17 12:34:24;;;;;;;12.00;7.42;;;;;;;21.58;73.42;101711.13;1742560;80;21060;-81
2022/10/17 12:37:11;;;;;;;8.15;7.20;;;;;;;21.66;73.28;101701.12;1733610;79;21065;-81
2022/10/17 12:39:56;;;;;;;11.40;7.55;;;;;;;21.68;73.21;101701.91;1736159;80;21108;-81
2022/10/17 12:42:48;;;;;;;7.70;6.92;;;;;;;21.72;73.07;101696.44;1729626;81;20981;-81
2022/10/17 12:46:03;;;;;;;9.78;7.08;;;;;;;21.77;72.97;101698.39;1801029;78;21038;-81
2022/10/17 12:49:00;;;;;;;11.18;7.17;;;;;;;21.83;72.83;101695.95;1720182;81;21040;-81
2022/10/17 12:52:24;;;;;;;8.00;7.30;;;;;;;21.84;72.64;101687.55;1740344;79;21119;-81
2022/10/17 12:55:17;;;;;;;8.33;7.37;;;;;;;21.82;72.44;101692.92;1704004;82;21144;-81
2022/10/17 12:58:10;;;;;;;7.47;6.78;;;;;;;21.82;72.28;101688.97;1723417;80;21129;-81
2022/10/17 13:00:58;;;;;;;9.78;7.50;;;;;;;21.76;72.17;101688.79;1748902;80;21076;-81
2022/10/17 13:03:47;;;;;;;9.63;6.72;;;;;;;21.71;72.08;101682.88;1745012;80;21000;-81
2022/10/17 13:06:38;;;;;;;9.25;7.92;;;;;;;21.66;71.87;101678.28;1754759;80;21446;-81
2022/10/17 13:09:38;;;;;;;9.53;6.95;;;;;;;21.63;71.76;101682.83;1740149;80;21097;-81